createdAt,value
2019-01-08T00:01:50.322Z,31.20
2019-01-08T00:04:52.325Z,28.57
2019-01-08T00:07:54.316Z,28.83
2019-01-08T00:10:56.298Z,30.10
2019-01-08T00:13:58.289Z,35.20
2019-01-08T00:17:00.358Z,28.73
2019-01-08T00:20:02.343Z,32.30
2019-01-08T00:23:04.269Z,31.30
2019-01-08T00:26:06.265Z,29.53
2019-01-08T00:29:08.179Z,27.77
2019-01-08T00:32:10.121Z,30.83
2019-01-08T00:35:12.048Z,28.07
2019-01-08T00:38:14.098Z,29.53
2019-01-08T00:41:16.112Z,31.27
2019-01-08T00:44:18.083Z,27.60
2019-01-08T00:47:20.044Z,26.47
2019-01-08T00:50:22.112Z,26.77
2019-01-08T00:53:26.699Z,30.50
2019-01-08T00:56:28.660Z,26.90
2019-01-08T00:59:30.598Z,29.10
2019-01-08T01:02:32.584Z,28.00
2019-01-08T01:05:34.507Z,23.77
2019-01-08T01:08:36.494Z,28.63
2019-01-08T01:11:38.462Z,28.53
2019-01-08T01:14:40.780Z,23.80
2019-01-08T01:17:42.801Z,22.50
2019-01-08T01:20:44.792Z,20.67
2019-01-08T01:23:46.722Z,24.23
2019-01-08T01:26:48.707Z,22.80
2019-01-08T01:29:50.663Z,21.60
2019-01-08T01:32:52.636Z,20.97
2019-01-08T01:35:54.566Z,22.93
2019-01-08T01:38:56.559Z,25.17
2019-01-08T01:41:58.578Z,20.60
2019-01-08T01:45:00.550Z,20.17
2019-01-08T01:48:02.509Z,25.13
2019-01-08T01:51:04.489Z,18.43
2019-01-08T01:54:06.530Z,19.70
2019-01-08T01:57:08.537Z,19.73
2019-01-08T02:00:10.650Z,19.03
2019-01-08T02:03:12.613Z,23.43
2019-01-08T02:06:14.532Z,21.30
2019-01-08T02:09:16.484Z,19.10
2019-01-08T02:12:18.435Z,18.27
2019-01-08T02:15:20.485Z,18.43
2019-01-08T02:18:22.467Z,17.33
2019-01-08T02:21:24.473Z,18.07
2019-01-08T02:24:26.382Z,17.97
2019-01-08T02:27:28.351Z,16.47
2019-01-08T02:30:30.308Z,18.60
2019-01-08T02:33:32.379Z,15.83
2019-01-08T02:36:34.427Z,14.57
2019-01-08T02:39:36.807Z,16.10
2019-01-08T02:42:38.787Z,11.27
2019-01-08T02:45:40.714Z,12.73
2019-01-08T02:48:42.588Z,11.73
2019-01-08T02:51:44.562Z,15.83
2019-01-08T02:54:46.682Z,14.53
2019-01-08T02:57:48.632Z,11.73
2019-01-08T03:00:50.546Z,12.07
2019-01-08T03:03:55.503Z,10.70
2019-01-08T03:06:57.526Z,13.10
2019-01-08T03:09:59.504Z,10.17
2019-01-08T03:13:01.458Z,12.30
2019-01-08T03:16:03.420Z,11.93
2019-01-08T03:19:05.418Z,9.33
2019-01-08T03:22:07.382Z,9.93
2019-01-08T03:25:09.308Z,9.40
2019-01-08T03:28:11.261Z,11.60
2019-01-08T03:31:13.182Z,10.20
2019-01-08T03:34:15.186Z,12.53
2019-01-08T03:37:17.189Z,10.83
2019-01-08T03:40:19.233Z,9.97
2019-01-08T03:43:21.217Z,10.97
2019-01-08T03:46:23.278Z,10.97
2019-01-08T03:49:25.255Z,8.80
2019-01-08T03:52:27.230Z,10.80
2019-01-08T03:55:30.631Z,8.40
2019-01-08T03:58:32.590Z,10.43
2019-01-08T04:01:34.518Z,7.27
2019-01-08T04:04:36.515Z,4.77
2019-01-08T04:07:38.486Z,5.07
2019-01-08T04:10:40.479Z,4.87
2019-01-08T04:13:42.486Z,5.73
2019-01-08T04:16:44.629Z,5.90
2019-01-08T04:19:46.664Z,7.27
2019-01-08T04:22:48.612Z,3.60
2019-01-08T04:25:50.849Z,3.23
2019-01-08T04:28:52.842Z,3.90
2019-01-08T04:31:54.785Z,4.50
2019-01-08T04:34:56.756Z,2.70
2019-01-08T04:37:58.695Z,4.60
2019-01-08T04:41:00.672Z,2.87
2019-01-08T04:44:02.624Z,3.77
2019-01-08T04:47:04.630Z,2.60
2019-01-08T04:50:06.529Z,2.90
2019-01-08T04:53:08.467Z,2.90
2019-01-08T04:56:10.553Z,2.67
2019-01-08T04:59:12.543Z,2.70
2019-01-08T05:02:14.503Z,2.63
2019-01-08T05:05:16.488Z,4.30
2019-01-08T05:08:18.489Z,3.43
2019-01-08T05:11:20.554Z,4.07
2019-01-08T05:14:22.532Z,2.77
2019-01-08T05:17:24.585Z,2.87
2019-01-08T05:20:26.649Z,4.90
2019-01-08T05:23:28.643Z,2.83
2019-01-08T05:26:30.580Z,3.07
2019-01-08T05:29:32.560Z,5.23
2019-01-08T05:32:37.313Z,2.67
2019-01-08T05:35:39.397Z,3.77
2019-01-08T05:38:42.473Z,4.77
2019-01-08T05:41:45.785Z,3.63
2019-01-08T05:44:48.289Z,5.30
2019-01-08T05:47:50.310Z,3.13
2019-01-08T05:50:52.251Z,4.00
2019-01-08T05:53:54.290Z,5.30
2019-01-08T05:56:56.365Z,4.20
2019-01-08T05:59:58.388Z,6.47
2019-01-08T06:03:00.363Z,4.37
2019-01-08T06:06:02.306Z,4.33
2019-01-08T06:09:05.040Z,7.37
2019-01-08T06:12:07.100Z,3.93
2019-01-08T06:15:09.084Z,6.13
2019-01-08T06:18:11.017Z,7.37
2019-01-08T06:21:13.028Z,5.70
2019-01-08T06:24:14.984Z,4.17
2019-01-08T06:27:16.928Z,6.60
2019-01-08T06:30:24.776Z,4.30
2019-01-08T06:33:22.777Z,3.20
2019-01-08T06:36:26.255Z,5.10
2019-01-08T06:39:28.629Z,5.83
2019-01-08T06:42:30.638Z,5.57
2019-01-08T06:45:32.655Z,4.53
2019-01-08T06:48:34.669Z,6.37
2019-01-08T06:51:36.558Z,2.50
2019-01-08T06:54:38.592Z,2.60
2019-01-08T06:57:40.596Z,3.03
2019-01-08T07:00:42.586Z,1.70
2019-01-08T07:03:44.554Z,3.03
2019-01-08T07:06:46.514Z,3.00
2019-01-08T07:09:48.443Z,3.67
2019-01-08T07:12:50.438Z,3.53
2019-01-08T07:15:52.474Z,3.73
2019-01-08T07:18:54.468Z,3.37
2019-01-08T07:21:56.488Z,2.70
2019-01-08T07:24:58.498Z,3.87
2019-01-08T07:28:00.468Z,6.03
2019-01-08T07:31:02.658Z,4.70
2019-01-08T07:34:04.639Z,6.10
2019-01-08T07:37:06.567Z,3.03
2019-01-08T07:40:08.532Z,3.90
2019-01-08T07:43:10.603Z,2.17
2019-01-08T07:46:12.544Z,2.10
2019-01-08T07:49:14.600Z,2.60
2019-01-08T07:52:16.494Z,3.43
2019-01-08T07:55:18.471Z,2.87
2019-01-08T07:58:20.590Z,2.40
2019-01-08T08:01:22.910Z,5.43
2019-01-08T08:04:24.835Z,3.67
2019-01-08T08:07:26.835Z,3.43
2019-01-08T08:10:28.843Z,4.40
2019-01-08T08:13:32.500Z,3.27
2019-01-08T08:16:34.891Z,2.60
2019-01-08T08:19:36.830Z,3.43
2019-01-08T08:22:38.813Z,3.97
2019-01-08T08:25:40.806Z,4.10
2019-01-08T08:28:42.720Z,7.00
2019-01-08T08:31:44.716Z,4.57
2019-01-08T08:34:46.632Z,6.27
2019-01-08T08:37:48.662Z,6.13
2019-01-08T08:40:50.595Z,6.53
2019-01-08T08:43:52.559Z,3.97
2019-01-08T08:46:54.529Z,2.93
2019-01-08T08:49:56.598Z,4.60
2019-01-08T08:52:58.567Z,2.27
2019-01-08T08:56:01.057Z,17.37
2019-01-08T08:59:03.072Z,17.17
2019-01-08T09:02:05.144Z,15.17
2019-01-08T09:05:07.093Z,2.17
2019-01-08T09:08:09.026Z,9.00
2019-01-08T09:11:10.936Z,25.17
2019-01-08T09:14:12.904Z,32.60
2019-01-08T09:17:14.982Z,6.70
2019-01-08T09:20:17.204Z,7.37
2019-01-08T09:23:19.233Z,7.90
2019-01-08T09:26:21.256Z,9.50
2019-01-08T09:29:23.224Z,7.60
2019-01-08T09:32:25.738Z,7.53
2019-01-08T09:35:27.698Z,4.77
2019-01-08T09:38:29.657Z,6.97
2019-01-08T09:41:31.551Z,6.80
2019-01-08T09:44:33.557Z,8.73
2019-01-08T09:47:35.567Z,8.40
2019-01-08T09:50:37.591Z,6.43
2019-01-08T09:53:39.499Z,6.67
2019-01-08T09:56:41.465Z,6.70
2019-01-08T09:59:43.749Z,5.43
2019-01-08T10:02:45.790Z,3.03
2019-01-08T10:05:47.658Z,6.80
2019-01-08T10:08:49.586Z,6.40
2019-01-08T10:11:51.525Z,5.87
2019-01-08T10:14:53.497Z,6.83
2019-01-08T10:17:55.493Z,9.73
2019-01-08T10:20:57.594Z,4.83
2019-01-08T10:23:59.696Z,5.43
2019-01-08T10:27:01.637Z,5.03
2019-01-08T10:30:07.266Z,7.63
2019-01-08T10:33:09.238Z,9.90
2019-01-08T10:36:11.155Z,7.17
2019-01-08T10:39:13.163Z,4.93
2019-01-08T10:42:15.011Z,7.57
2019-01-08T10:45:16.953Z,9.30
2019-01-08T10:48:18.879Z,7.67
2019-01-08T10:51:20.876Z,5.00
2019-01-08T10:54:22.816Z,4.60
2019-01-08T10:57:24.805Z,3.43
2019-01-08T11:00:26.883Z,3.00
2019-01-08T11:03:28.935Z,4.73
2019-01-08T11:06:30.908Z,3.73
2019-01-08T11:09:32.820Z,2.47
2019-01-08T11:12:34.755Z,2.30
2019-01-08T11:15:36.716Z,2.87
2019-01-08T11:18:38.707Z,3.90
2019-01-08T11:21:40.700Z,5.17
2019-01-08T11:24:42.770Z,6.10
2019-01-08T11:27:44.749Z,5.40
2019-01-08T11:30:46.676Z,2.23
2019-01-08T11:33:48.652Z,3.80
2019-01-08T11:36:50.577Z,3.80
2019-01-08T11:39:52.502Z,5.90
2019-01-08T11:42:54.425Z,3.77
2019-01-08T11:45:56.392Z,4.43
2019-01-08T11:48:58.345Z,5.83
2019-01-08T11:52:00.311Z,3.87
2019-01-08T11:55:02.326Z,4.57
2019-01-08T11:58:04.340Z,8.87
2019-01-08T12:01:06.275Z,4.67
2019-01-08T12:04:08.242Z,8.17
2019-01-08T12:07:10.157Z,3.80
2019-01-08T12:10:12.358Z,4.27
2019-01-08T12:13:14.276Z,3.93
2019-01-08T12:16:16.263Z,3.23
2019-01-08T12:19:18.266Z,3.80
2019-01-08T12:22:20.190Z,3.87
2019-01-08T12:25:22.178Z,3.37
2019-01-08T12:28:24.200Z,4.77
2019-01-08T12:31:26.106Z,4.27
2019-01-08T12:34:28.055Z,2.83
2019-01-08T12:37:29.955Z,3.40
2019-01-08T12:40:31.891Z,4.03
2019-01-08T12:43:33.771Z,4.60
2019-01-08T12:46:35.697Z,3.87
2019-01-08T12:49:37.656Z,5.57
2019-01-08T12:52:39.569Z,7.57
2019-01-08T12:55:41.487Z,5.00
2019-01-08T12:58:43.409Z,6.53
2019-01-08T13:01:45.335Z,6.77
2019-01-08T13:04:47.417Z,8.13
2019-01-08T13:07:49.288Z,8.87
2019-01-08T13:10:51.253Z,6.23
2019-01-08T13:13:53.153Z,5.93
2019-01-08T13:16:55.136Z,5.63
2019-01-08T13:19:57.083Z,5.17
2019-01-08T13:22:59.028Z,4.97
2019-01-08T13:26:01.050Z,6.90
2019-01-08T13:29:02.995Z,5.63
2019-01-08T13:32:04.985Z,7.97
2019-01-08T13:35:07.055Z,5.53
2019-01-08T13:38:08.999Z,5.17
2019-01-08T13:41:10.985Z,4.63
2019-01-08T13:44:12.866Z,7.40
2019-01-08T13:47:14.971Z,6.43
2019-01-08T13:50:18.038Z,5.20
2019-01-08T13:53:20.030Z,10.07
2019-01-08T13:56:21.922Z,8.27
2019-01-08T13:59:24.237Z,11.13
2019-01-08T14:02:31.826Z,6.87
2019-01-08T14:05:30.377Z,6.77
2019-01-08T14:08:32.472Z,6.07
2019-01-08T14:11:34.436Z,4.97
2019-01-08T14:14:36.363Z,4.97
2019-01-08T14:17:38.315Z,4.93
2019-01-08T14:20:40.282Z,5.13
2019-01-08T14:23:42.235Z,4.17
2019-01-08T14:26:44.441Z,6.73
2019-01-08T14:29:46.511Z,7.50
2019-01-08T14:32:48.432Z,5.03
2019-01-08T14:35:50.380Z,6.03
2019-01-08T14:38:52.291Z,3.97
2019-01-08T14:41:54.292Z,4.87
2019-01-08T14:44:56.248Z,6.43
2019-01-08T14:47:58.263Z,3.93
2019-01-08T14:51:00.292Z,5.33
2019-01-08T14:54:02.232Z,6.57
2019-01-08T14:57:04.110Z,5.03
2019-01-08T15:00:08.474Z,7.80
2019-01-08T15:03:10.411Z,7.53
2019-01-08T15:06:12.922Z,6.27
2019-01-08T15:09:14.873Z,3.60
2019-01-08T15:12:16.826Z,7.23
2019-01-08T15:15:18.760Z,5.80
2019-01-08T15:18:20.751Z,7.57
2019-01-08T15:21:22.685Z,5.43
2019-01-08T15:24:24.838Z,5.37
2019-01-08T15:27:26.886Z,4.47
2019-01-08T15:30:28.866Z,5.00
2019-01-08T15:33:30.766Z,3.53
2019-01-08T15:36:32.806Z,4.70
2019-01-08T15:39:34.711Z,5.97
2019-01-08T15:42:36.686Z,7.77
2019-01-08T15:45:38.602Z,7.87
2019-01-08T15:48:40.586Z,6.93
2019-01-08T15:51:42.551Z,7.30
2019-01-08T15:54:44.516Z,7.23
2019-01-08T15:57:46.389Z,7.77
2019-01-08T16:00:48.330Z,9.83
2019-01-08T16:03:50.302Z,6.47
2019-01-08T16:06:53.916Z,8.30
2019-01-08T16:09:55.832Z,5.87
2019-01-08T16:12:57.996Z,6.63
2019-01-08T16:15:59.932Z,6.27
2019-01-08T16:19:01.965Z,4.50
2019-01-08T16:22:03.909Z,5.43
2019-01-08T16:25:05.850Z,6.60
2019-01-08T16:28:07.888Z,6.27
2019-01-08T16:31:09.890Z,8.07
2019-01-08T16:34:11.838Z,8.40
2019-01-08T16:37:13.833Z,8.40
2019-01-08T16:40:16.906Z,6.70
2019-01-08T16:43:18.907Z,6.40
2019-01-08T16:46:20.823Z,4.93
2019-01-08T16:49:22.869Z,8.53
2019-01-08T16:52:24.906Z,4.40
2019-01-08T16:55:26.920Z,11.00
2019-01-08T16:58:28.875Z,5.60
2019-01-08T17:01:30.923Z,5.50
2019-01-08T17:04:32.822Z,6.07
2019-01-08T17:07:35.134Z,7.27
2019-01-08T17:10:37.758Z,6.30
2019-01-08T17:13:39.867Z,5.83
2019-01-08T17:16:41.901Z,8.77
2019-01-08T17:19:43.875Z,6.40
2019-01-08T17:22:45.904Z,8.23
2019-01-08T17:25:48.344Z,4.97
2019-01-08T17:28:50.467Z,7.43
2019-01-08T17:31:52.550Z,6.53
2019-01-08T17:34:54.463Z,8.77
2019-01-08T17:37:56.427Z,5.13
2019-01-08T17:40:58.403Z,5.90
2019-01-08T17:44:00.477Z,6.43
2019-01-08T17:47:02.557Z,6.57
2019-01-08T17:50:05.241Z,9.93
2019-01-08T17:53:10.024Z,7.77
2019-01-08T17:56:12.128Z,9.03
2019-01-08T17:59:14.029Z,8.20
2019-01-08T18:02:15.994Z,7.30
2019-01-08T18:05:18.066Z,7.47
2019-01-08T18:08:20.557Z,7.10
2019-01-08T18:11:23.970Z,8.10
2019-01-08T18:14:25.902Z,7.07
2019-01-08T18:17:27.817Z,7.60
2019-01-08T18:20:29.790Z,11.33
2019-01-08T18:23:31.828Z,10.57
2019-01-08T18:26:34.388Z,10.73
2019-01-08T18:29:36.631Z,12.63
2019-01-08T18:32:38.731Z,12.60
2019-01-08T18:35:42.448Z,11.63
2019-01-08T18:38:44.370Z,13.67
2019-01-08T18:41:48.298Z,14.10
2019-01-08T18:44:54.225Z,25.77
2019-01-08T18:47:56.344Z,22.47
2019-01-08T18:50:59.782Z,19.97
2019-01-08T18:54:02.288Z,16.00
2019-01-08T18:57:04.265Z,22.53
2019-01-08T19:00:08.201Z,30.30
2019-01-08T19:03:10.197Z,31.37
2019-01-08T19:06:15.020Z,38.47
2019-01-08T19:09:29.617Z,25.17
2019-01-08T19:12:31.577Z,18.80
2019-01-08T19:15:35.880Z,9.40
2019-01-08T19:18:37.814Z,12.13
2019-01-08T19:21:39.833Z,14.47
2019-01-08T19:24:43.624Z,16.27
2019-01-08T19:27:47.407Z,26.53
2019-01-08T19:30:51.674Z,17.50
2019-01-08T19:33:54.124Z,23.17
2019-01-08T19:36:57.259Z,28.83
2019-01-08T19:40:01.293Z,24.63
2019-01-08T19:43:06.623Z,24.87
2019-01-08T19:46:09.977Z,26.47
2019-01-08T19:49:13.891Z,21.57
2019-01-08T19:52:16.563Z,18.97
2019-01-08T19:55:18.594Z,17.67
2019-01-08T19:58:20.700Z,18.60
2019-01-08T20:01:22.639Z,20.73
2019-01-08T20:04:24.622Z,29.53
2019-01-08T20:07:27.644Z,18.80
2019-01-08T20:10:29.793Z,36.43
2019-01-08T20:13:31.805Z,25.30
2019-01-08T20:16:33.789Z,34.20
2019-01-08T20:19:35.736Z,30.47
2019-01-08T20:22:38.183Z,22.53
2019-01-08T20:25:40.207Z,27.10
2019-01-08T20:28:42.196Z,21.20
2019-01-08T20:31:44.681Z,18.17
2019-01-08T20:34:48.667Z,22.60
2019-01-08T20:37:51.447Z,24.00
2019-01-08T20:40:53.441Z,27.07
2019-01-08T20:43:55.791Z,18.97
2019-01-08T20:46:58.460Z,19.17
2019-01-08T20:50:00.427Z,16.63
2019-01-08T20:53:02.759Z,14.97
2019-01-08T20:56:04.817Z,21.27
2019-01-08T20:59:07.112Z,19.90
2019-01-08T21:02:09.102Z,17.63
2019-01-08T21:05:11.117Z,21.07
2019-01-08T21:08:13.102Z,22.53
2019-01-08T21:11:17.057Z,15.37
2019-01-08T21:14:19.002Z,12.17
2019-01-08T21:17:24.514Z,14.60
2019-01-08T21:20:26.518Z,13.50
2019-01-08T21:23:28.462Z,15.47
2019-01-08T21:26:30.458Z,20.07
2019-01-08T21:29:32.463Z,14.67
2019-01-08T21:32:34.462Z,10.07
2019-01-08T21:35:37.800Z,13.33
2019-01-08T21:38:42.218Z,11.80
2019-01-08T21:41:44.298Z,12.97
2019-01-08T21:44:46.309Z,8.17
2019-01-08T21:47:48.491Z,9.67
2019-01-08T21:50:50.427Z,12.33
2019-01-08T21:53:52.434Z,14.63
2019-01-08T21:56:54.383Z,14.27
2019-01-08T21:59:56.316Z,12.23
2019-01-08T22:02:59.314Z,18.23
2019-01-08T22:06:01.322Z,19.23
2019-01-08T22:09:04.873Z,24.07
2019-01-08T22:12:06.942Z,16.80
2019-01-08T22:15:08.852Z,24.20
2019-01-08T22:18:10.838Z,22.20
2019-01-08T22:21:12.738Z,21.87
2019-01-08T22:24:14.774Z,13.60
2019-01-08T22:27:16.753Z,11.43
2019-01-08T22:30:18.729Z,8.10
2019-01-08T22:33:20.790Z,6.90
2019-01-08T22:36:22.809Z,6.93
2019-01-08T22:39:24.763Z,6.40
2019-01-08T22:42:26.722Z,4.93
2019-01-08T22:45:28.678Z,3.53
2019-01-08T22:48:30.875Z,3.97
2019-01-08T22:51:32.797Z,4.00
2019-01-08T22:54:34.752Z,5.57
2019-01-08T22:57:36.864Z,5.87
2019-01-08T23:00:49.487Z,6.67
2019-01-08T23:04:01.014Z,5.07
2019-01-08T23:07:03.178Z,4.23
2019-01-08T23:10:05.645Z,3.10
2019-01-08T23:13:09.269Z,2.83
2019-01-08T23:16:11.267Z,3.50
2019-01-08T23:19:14.552Z,9.27
2019-01-08T23:22:16.557Z,5.33
2019-01-08T23:25:18.546Z,5.60
2019-01-08T23:28:20.536Z,4.53
2019-01-08T23:31:22.495Z,3.93
2019-01-08T23:34:24.491Z,5.80
2019-01-08T23:37:26.504Z,6.33
2019-01-08T23:40:28.433Z,4.33
2019-01-08T23:43:30.437Z,7.50
2019-01-08T23:46:32.324Z,3.50
2019-01-08T23:49:35.660Z,4.10
2019-01-08T23:52:56.561Z,4.83
2019-01-08T23:55:59.954Z,4.83
2019-01-08T23:59:02.019Z,4.30
